createdAt,value
2023-03-11T00:00:16.429Z,98259.12
2023-03-11T00:01:18.689Z,98265.02
2023-03-11T00:02:21.573Z,98261.27
2023-03-11T00:03:24.578Z,98255.48
2023-03-11T00:04:26.871Z,98252.34
2023-03-11T00:05:32.348Z,98253.88
2023-03-11T00:06:35.459Z,98251.55
2023-03-11T00:07:39.370Z,98243.77
2023-03-11T00:08:43.200Z,98252.76
2023-03-11T00:09:47.307Z,98252.76
2023-03-11T00:10:53.623Z,98255.91
2023-03-11T00:11:55.840Z,98253.16
2023-03-11T00:12:59.879Z,98245.39
2023-03-11T00:14:02.154Z,98245.53
2023-03-11T00:15:05.211Z,98249.53
2023-03-11T00:16:08.066Z,98239.47
2023-03-11T00:17:10.402Z,98247.69
2023-03-11T00:18:12.750Z,98238.09
2023-03-11T00:19:15.617Z,98241.59
2023-03-11T00:20:21.683Z,98232.95
2023-03-11T00:21:23.964Z,98229.31
2023-03-11T00:22:26.276Z,98237.45
2023-03-11T00:23:29.232Z,98238.03
2023-03-11T00:24:31.574Z,98231.52
2023-03-11T00:25:36.698Z,98228.71
2023-03-11T00:26:40.274Z,98222.69
2023-03-11T00:27:43.683Z,98229.02
2023-03-11T00:28:47.935Z,98227.89
2023-03-11T00:29:50.452Z,98226.86
2023-03-11T00:30:53.825Z,98218.27
2023-03-11T00:31:56.692Z,98223.41
2023-03-11T00:33:00.620Z,98232.14
2023-03-11T00:34:03.884Z,98223.58
2023-03-11T00:35:10.295Z,98224.70
2023-03-11T00:36:27.412Z,98222.10
2023-03-11T00:37:30.638Z,98227.10
2023-03-11T00:38:33.250Z,98216.89
2023-03-11T00:39:35.607Z,98216.00
2023-03-11T00:40:39.678Z,98220.28
2023-03-11T00:41:42.152Z,98209.77
2023-03-11T00:42:44.970Z,98211.34
2023-03-11T00:43:47.737Z,98216.25
2023-03-11T00:44:50.172Z,98213.54
2023-03-11T00:45:52.354Z,98211.28
2023-03-11T00:46:55.766Z,98217.13
2023-03-11T00:47:58.804Z,98206.14
2023-03-11T00:49:01.537Z,98199.39
2023-03-11T00:50:05.303Z,98200.94
2023-03-11T00:51:15.837Z,98204.12
2023-03-11T00:52:18.430Z,98198.74
2023-03-11T00:53:22.017Z,98199.50
2023-03-11T00:54:24.505Z,98190.14
2023-03-11T00:55:30.317Z,98195.75
2023-03-11T00:56:33.930Z,98188.80
2023-03-11T00:57:36.342Z,98191.75
2023-03-11T00:58:39.230Z,98185.76
2023-03-11T00:59:41.763Z,98179.91
2023-03-11T01:00:44.601Z,98176.62
2023-03-11T01:01:47.696Z,98178.47
2023-03-11T01:02:51.064Z,98168.91
2023-03-11T01:03:53.792Z,98170.34
2023-03-11T01:04:56.888Z,98177.75
2023-03-11T01:05:59.396Z,98173.00
2023-03-11T01:07:01.865Z,98173.23
2023-03-11T01:08:04.756Z,98172.14
2023-03-11T01:09:07.389Z,98162.23
2023-03-11T01:10:11.510Z,98164.87
2023-03-11T01:11:14.087Z,98168.41
2023-03-11T01:12:16.416Z,98171.01
2023-03-11T01:13:18.845Z,98164.27
2023-03-11T01:14:23.867Z,98169.40
2023-03-11T01:15:32.907Z,98163.44
2023-03-11T01:16:35.848Z,98171.42
2023-03-11T01:17:38.233Z,98156.70
2023-03-11T01:18:40.573Z,98156.70
2023-03-11T01:19:44.579Z,98161.52
2023-03-11T01:20:47.986Z,98153.50
2023-03-11T01:21:50.651Z,98157.34
2023-03-11T01:22:52.789Z,98157.52
2023-03-11T01:23:56.074Z,98158.06
2023-03-11T01:24:58.492Z,98152.86
2023-03-11T01:26:00.992Z,98154.47
2023-03-11T01:27:03.257Z,98164.27
2023-03-11T01:28:07.798Z,98157.34
2023-03-11T01:29:10.126Z,98149.33
2023-03-11T01:30:16.075Z,98152.61
2023-03-11T01:31:18.609Z,98154.22
2023-03-11T01:32:21.008Z,98151.89
2023-03-11T01:33:23.442Z,98148.57
2023-03-11T01:34:25.791Z,98152.67
2023-03-11T01:35:30.021Z,98148.36
2023-03-11T01:36:32.576Z,98144.36
2023-03-11T01:37:35.282Z,98148.20
2023-03-11T01:38:37.618Z,98152.55
2023-03-11T01:39:39.973Z,98151.13
2023-03-11T01:40:46.073Z,98148.03
2023-03-11T01:41:49.385Z,98144.68
2023-03-11T01:42:51.728Z,98147.35
2023-03-11T01:43:55.009Z,98142.35
2023-03-11T01:44:59.170Z,98144.78
2023-03-11T01:46:18.375Z,98144.44
2023-03-11T01:47:34.034Z,98146.16
2023-03-11T01:48:38.522Z,98138.66
2023-03-11T01:49:41.635Z,98131.30
2023-03-11T01:50:47.773Z,98139.23
2023-03-11T01:52:03.296Z,98134.03
2023-03-11T01:53:06.564Z,98132.97
2023-03-11T01:54:15.290Z,98134.41
2023-03-11T01:55:19.533Z,98129.38
2023-03-11T01:56:24.173Z,98123.36
2023-03-11T01:57:27.225Z,98127.59
2023-03-11T01:58:33.300Z,98127.26
2023-03-11T01:59:46.218Z,98124.72
2023-03-11T02:00:48.920Z,98124.45
2023-03-11T02:02:13.404Z,98126.63
2023-03-11T02:03:22.415Z,98131.73
2023-03-11T02:04:26.901Z,98131.78
2023-03-11T02:05:29.321Z,98123.97
2023-03-11T02:06:32.457Z,98123.66
2023-03-11T02:07:38.643Z,98119.06
2023-03-11T02:08:43.024Z,98114.00
2023-03-11T02:09:46.014Z,98121.39
2023-03-11T02:10:52.010Z,98132.38
2023-03-11T02:11:56.504Z,98117.54
2023-03-11T02:13:00.258Z,98114.53
2023-03-11T02:14:06.411Z,98106.12
2023-03-11T02:15:10.502Z,98112.94
2023-03-11T02:16:14.265Z,98109.37
2023-03-11T02:17:17.729Z,98113.03
2023-03-11T02:18:21.621Z,98109.55
2023-03-11T02:19:50.519Z,98111.11
2023-03-11T02:20:56.780Z,98113.61
2023-03-11T02:22:00.170Z,98104.23
2023-03-11T02:23:03.108Z,98112.65
2023-03-11T02:24:09.352Z,98107.66
2023-03-11T02:25:24.886Z,98100.84
2023-03-11T02:26:52.230Z,98103.59
2023-03-11T02:27:56.729Z,98100.84
2023-03-11T02:29:04.205Z,98115.75
2023-03-11T02:30:10.096Z,98102.84
2023-03-11T02:31:13.880Z,98104.27
2023-03-11T02:32:17.632Z,98108.06
2023-03-11T02:33:20.754Z,98104.72
2023-03-11T02:34:27.952Z,98115.66
2023-03-11T02:35:31.136Z,98103.11
2023-03-11T02:36:38.151Z,98094.95
2023-03-11T02:37:45.958Z,98103.11
2023-03-11T02:38:48.275Z,98094.58
2023-03-11T02:39:53.439Z,98096.26
2023-03-11T02:40:59.019Z,98099.19
2023-03-11T02:42:14.952Z,98098.41
2023-03-11T02:43:21.308Z,98094.56
2023-03-11T02:44:24.434Z,98103.05
2023-03-11T02:45:29.719Z,98094.85
2023-03-11T02:46:32.682Z,98097.77
2023-03-11T02:47:38.952Z,98094.84
2023-03-11T02:48:43.010Z,98095.59
2023-03-11T02:49:45.613Z,98095.55
2023-03-11T02:50:48.043Z,98092.12
2023-03-11T02:51:51.819Z,98087.66
2023-03-11T02:52:54.297Z,98091.61
2023-03-11T02:54:01.928Z,98093.43
2023-03-11T02:55:05.872Z,98089.45
2023-03-11T02:56:09.669Z,98090.59
2023-03-11T02:57:12.111Z,98088.14
2023-03-11T02:58:14.321Z,98086.34
2023-03-11T02:59:17.420Z,98082.88
2023-03-11T03:00:20.551Z,98083.00
2023-03-11T03:01:24.921Z,98090.52
2023-03-11T03:02:27.513Z,98084.74
2023-03-11T03:03:30.004Z,98087.24
2023-03-11T03:04:32.995Z,98087.42
2023-03-11T03:05:36.827Z,98088.92
2023-03-11T03:06:39.349Z,98093.69
2023-03-11T03:07:41.792Z,98084.87
2023-03-11T03:08:44.349Z,98086.34
2023-03-11T03:09:46.579Z,98091.41
2023-03-11T03:10:49.021Z,98090.66
2023-03-11T03:11:51.454Z,98088.53
2023-03-11T03:12:53.796Z,98090.42
2023-03-11T03:13:56.490Z,98078.73
2023-03-11T03:14:59.785Z,98083.75
2023-03-11T03:16:03.236Z,98092.10
2023-03-11T03:17:05.702Z,98077.30
2023-03-11T03:18:08.235Z,98084.93
2023-03-11T03:19:10.704Z,98078.26
2023-03-11T03:20:14.622Z,98076.16
2023-03-11T03:21:18.886Z,98070.52
2023-03-11T03:22:23.615Z,98074.52
2023-03-11T03:23:26.502Z,98067.56
2023-03-11T03:24:29.876Z,98070.59
2023-03-11T03:25:32.180Z,98074.91
2023-03-11T03:26:37.569Z,98060.71
2023-03-11T03:27:40.637Z,98060.71
2023-03-11T03:28:44.263Z,98059.61
2023-03-11T03:29:46.937Z,98060.71
2023-03-11T03:30:49.556Z,98054.72
2023-03-11T03:31:52.297Z,98053.83
2023-03-11T03:32:56.148Z,98047.80
2023-03-11T03:33:58.878Z,98046.73
2023-03-11T03:35:02.484Z,98044.45
2023-03-11T03:36:13.457Z,98042.55
2023-03-11T03:37:17.586Z,98044.20
2023-03-11T03:38:20.540Z,98040.80
2023-03-11T03:39:23.403Z,98040.80
2023-03-11T03:40:26.551Z,98034.84
2023-03-11T03:41:29.353Z,98038.95
2023-03-11T03:42:32.113Z,98043.97
2023-03-11T03:43:34.645Z,98030.98
2023-03-11T03:44:37.600Z,98030.09
2023-03-11T03:45:40.805Z,98036.64
2023-03-11T03:46:43.504Z,98030.66
2023-03-11T03:47:46.060Z,98025.52
2023-03-11T03:48:48.427Z,98026.48
2023-03-11T03:49:50.682Z,98013.78
2023-03-11T03:50:53.332Z,98025.21
2023-03-11T03:51:56.053Z,98020.19
2023-03-11T03:53:00.772Z,98015.30
2023-03-11T03:54:03.649Z,98016.88
2023-03-11T03:55:07.134Z,98013.15
2023-03-11T03:56:13.894Z,98016.88
2023-03-11T03:57:17.090Z,98004.78
2023-03-11T03:58:21.183Z,98002.98
2023-03-11T03:59:24.016Z,98005.18
2023-03-11T04:00:28.235Z,98009.87
2023-03-11T04:01:32.570Z,98002.20
2023-03-11T04:02:36.537Z,98004.96
2023-03-11T04:03:40.036Z,97999.00
2023-03-11T04:04:44.467Z,97997.21
2023-03-11T04:05:48.697Z,97994.77
2023-03-11T04:06:51.969Z,97991.30
2023-03-11T04:07:54.792Z,97991.30
2023-03-11T04:08:57.355Z,97988.73
2023-03-11T04:10:01.923Z,97986.28
2023-03-11T04:11:06.250Z,97984.48
2023-03-11T04:12:19.121Z,97983.48
2023-03-11T04:13:22.620Z,97976.86
2023-03-11T04:14:25.147Z,97980.91
2023-03-11T04:15:29.349Z,97966.92
2023-03-11T04:16:33.095Z,97968.70
2023-03-11T04:17:38.614Z,97962.23
2023-03-11T04:18:40.887Z,97956.65
2023-03-11T04:19:44.516Z,97961.00
2023-03-11T04:20:47.403Z,97964.58
2023-03-11T04:21:51.355Z,97965.10
2023-03-11T04:22:53.974Z,97965.63
2023-03-11T04:23:59.776Z,97957.09
2023-03-11T04:25:04.846Z,97965.69
2023-03-11T04:26:09.418Z,97958.25
2023-03-11T04:27:12.450Z,97961.00
2023-03-11T04:28:15.199Z,97957.55
2023-03-11T04:29:18.316Z,97961.12
2023-03-11T04:30:22.914Z,97951.55
2023-03-11T04:31:27.127Z,97951.11
2023-03-11T04:32:29.562Z,97952.92
2023-03-11T04:33:32.183Z,97944.44
2023-03-11T04:34:35.436Z,97949.69
2023-03-11T04:35:38.826Z,97948.88
2023-03-11T04:36:42.104Z,97942.88
2023-03-11T04:37:44.772Z,97935.63
2023-03-11T04:38:47.904Z,97938.00
2023-03-11T04:39:52.609Z,97938.72
2023-03-11T04:41:01.300Z,97936.81
2023-03-11T04:42:04.931Z,97933.98
2023-03-11T04:43:10.413Z,97920.19
2023-03-11T04:44:13.068Z,97925.17
2023-03-11T04:45:17.383Z,97930.97
2023-03-11T04:46:20.415Z,97941.88
2023-03-11T04:47:23.510Z,97930.83
2023-03-11T04:48:27.129Z,97928.19
2023-03-11T04:49:29.649Z,97928.14
2023-03-11T04:50:32.263Z,97926.03
2023-03-11T04:51:34.680Z,97924.91
2023-03-11T04:52:37.230Z,97917.64
2023-03-11T04:53:39.573Z,97925.42
2023-03-11T04:54:42.269Z,97918.30
2023-03-11T04:55:45.403Z,97916.63
2023-03-11T04:56:49.256Z,97914.77
2023-03-11T04:57:51.944Z,97914.34
2023-03-11T04:58:54.230Z,97910.61
2023-03-11T04:59:58.119Z,97909.98
2023-03-11T05:01:00.915Z,97918.50
2023-03-11T05:02:03.578Z,97915.61
2023-03-11T05:03:06.604Z,97914.91
2023-03-11T05:04:10.467Z,97917.09
2023-03-11T05:05:13.452Z,97906.74
2023-03-11T05:06:18.456Z,97906.74
2023-03-11T05:07:21.654Z,97916.31
2023-03-11T05:08:24.470Z,97915.42
2023-03-11T05:09:27.194Z,97902.46
2023-03-11T05:10:31.889Z,97901.69
2023-03-11T05:11:34.159Z,97899.05
2023-03-11T05:12:36.741Z,97897.33
2023-03-11T05:13:39.202Z,97893.16
2023-03-11T05:14:41.378Z,97897.59
2023-03-11T05:15:45.815Z,97894.09
2023-03-11T05:16:48.584Z,97894.76
2023-03-11T05:17:50.958Z,97888.70
2023-03-11T05:18:53.328Z,97886.08
2023-03-11T05:19:57.011Z,97885.81
2023-03-11T05:21:01.307Z,97877.72
2023-03-11T05:22:06.596Z,97873.59
2023-03-11T05:23:09.207Z,97875.69
2023-03-11T05:24:12.115Z,97866.19
2023-03-11T05:25:15.009Z,97874.31
2023-03-11T05:26:18.542Z,97873.06
2023-03-11T05:27:21.011Z,97869.31
2023-03-11T05:28:25.320Z,97868.48
2023-03-11T05:29:28.018Z,97860.00
2023-03-11T05:30:30.587Z,97855.09
2023-03-11T05:31:34.139Z,97849.66
2023-03-11T05:32:37.356Z,97851.41
2023-03-11T05:33:41.322Z,97853.69
2023-03-11T05:34:46.401Z,97845.19
2023-03-11T05:35:51.469Z,97851.91
2023-03-11T05:36:54.916Z,97847.30
2023-03-11T05:37:57.917Z,97844.59
2023-03-11T05:39:02.421Z,97843.83
2023-03-11T05:40:10.265Z,97837.66
2023-03-11T05:41:13.152Z,97852.78
2023-03-11T05:42:17.157Z,97847.34
2023-03-11T05:43:21.523Z,97839.47
2023-03-11T05:44:25.854Z,97850.05
2023-03-11T05:45:28.859Z,97851.88
2023-03-11T05:46:31.742Z,97849.92
2023-03-11T05:47:35.219Z,97846.14
2023-03-11T05:48:38.814Z,97846.23
2023-03-11T05:49:41.341Z,97843.27
2023-03-11T05:50:43.827Z,97842.59
2023-03-11T05:51:46.376Z,97845.55
2023-03-11T05:52:49.339Z,97847.73
2023-03-11T05:53:52.619Z,97846.77
2023-03-11T05:54:56.972Z,97852.34
2023-03-11T05:56:02.188Z,97835.11
2023-03-11T05:57:05.966Z,97838.20
2023-03-11T05:58:09.027Z,97837.98
2023-03-11T05:59:16.408Z,97838.22
2023-03-11T06:00:19.908Z,97830.69
2023-03-11T06:01:23.473Z,97836.05
2023-03-11T06:02:26.323Z,97834.97
2023-03-11T06:03:30.332Z,97829.47
2023-03-11T06:04:34.005Z,97825.39
2023-03-11T06:05:39.234Z,97833.26
2023-03-11T06:06:41.917Z,97842.93
2023-03-11T06:07:46.803Z,97832.84
2023-03-11T06:08:49.775Z,97831.52
2023-03-11T06:09:52.725Z,97834.69
2023-03-11T06:11:04.677Z,97830.88
2023-03-11T06:12:08.110Z,97832.40
2023-03-11T06:13:27.551Z,97821.58
2023-03-11T06:14:32.070Z,97826.25
2023-03-11T06:15:37.256Z,97818.76
2023-03-11T06:16:41.812Z,97827.34
2023-03-11T06:17:45.293Z,97822.67
2023-03-11T06:18:48.249Z,97817.62
2023-03-11T06:19:51.484Z,97818.46
2023-03-11T06:20:56.179Z,97822.28
2023-03-11T06:21:58.817Z,97814.28
2023-03-11T06:23:01.990Z,97814.28
2023-03-11T06:24:05.117Z,97818.28
2023-03-11T06:25:09.049Z,97817.21
2023-03-11T06:26:15.700Z,97817.60
2023-03-11T06:27:18.863Z,97816.59
2023-03-11T06:28:21.605Z,97815.36
2023-03-11T06:29:26.610Z,97817.61
2023-03-11T06:30:30.075Z,97819.45
2023-03-11T06:31:41.012Z,97821.59
2023-03-11T06:32:46.250Z,97825.16
2023-03-11T06:33:48.705Z,97821.92
2023-03-11T06:34:52.989Z,97821.57
2023-03-11T06:36:00.875Z,97814.90
2023-03-11T06:37:05.563Z,97818.70
2023-03-11T06:38:09.110Z,97821.37
2023-03-11T06:39:15.190Z,97825.88
2023-03-11T06:40:18.322Z,97832.86
2023-03-11T06:41:21.539Z,97833.78
2023-03-11T06:42:25.165Z,97829.88
2023-03-11T06:43:28.173Z,97823.70
2023-03-11T06:44:31.007Z,97816.62
2023-03-11T06:45:33.618Z,97822.14
2023-03-11T06:46:36.387Z,97817.42
2023-03-11T06:47:39.398Z,97823.23
2023-03-11T06:48:41.843Z,97815.78
2023-03-11T06:49:44.570Z,97810.38
2023-03-11T06:50:56.718Z,97811.95
2023-03-11T06:52:03.532Z,97799.61
2023-03-11T06:53:08.196Z,97809.77
2023-03-11T06:54:11.540Z,97799.80
2023-03-11T06:55:14.749Z,97793.45
2023-03-11T06:56:17.938Z,97792.13
2023-03-11T06:57:22.573Z,97793.41
2023-03-11T06:58:25.513Z,97792.08
2023-03-11T06:59:28.553Z,97785.34
2023-03-11T07:00:31.724Z,97781.27
2023-03-11T07:01:34.928Z,97777.61
2023-03-11T07:02:39.941Z,97777.61
2023-03-11T07:03:42.761Z,97780.14
2023-03-11T07:04:50.505Z,97775.39
2023-03-11T07:05:53.097Z,97776.50
2023-03-11T07:06:58.322Z,97767.58
2023-03-11T07:08:01.464Z,97766.93
2023-03-11T07:09:04.364Z,97768.45
2023-03-11T07:10:08.566Z,97764.52
2023-03-11T07:11:14.784Z,97758.27
2023-03-11T07:12:17.756Z,97768.50
2023-03-11T07:13:21.281Z,97754.75
2023-03-11T07:14:24.298Z,97752.27
2023-03-11T07:15:29.739Z,97749.12
2023-03-11T07:16:32.485Z,97742.00
2023-03-11T07:17:36.836Z,97744.98
2023-03-11T07:18:39.955Z,97744.75
2023-03-11T07:19:42.914Z,97742.41
2023-03-11T07:20:45.484Z,97736.23
2023-03-11T07:21:48.126Z,97734.58
2023-03-11T07:22:50.283Z,97732.91
2023-03-11T07:23:54.516Z,97724.40
2023-03-11T07:24:57.581Z,97722.64
2023-03-11T07:26:00.822Z,97715.09
2023-03-11T07:27:03.512Z,97726.33
2023-03-11T07:28:05.941Z,97721.30
2023-03-11T07:29:09.686Z,97723.78
2023-03-11T07:30:13.166Z,97727.39
2023-03-11T07:31:22.699Z,97731.16
2023-03-11T07:32:26.070Z,97723.97
2023-03-11T07:33:29.080Z,97727.80
2023-03-11T07:34:31.394Z,97732.70
2023-03-11T07:35:35.705Z,97728.55
2023-03-11T07:36:42.055Z,97726.12
2023-03-11T07:37:44.317Z,97730.02
2023-03-11T07:38:47.212Z,97721.88
2023-03-11T07:39:49.860Z,97714.54
2023-03-11T07:40:59.592Z,97727.63
2023-03-11T07:42:05.018Z,97723.97
2023-03-11T07:43:12.103Z,97728.02
2023-03-11T07:44:16.125Z,97727.63
2023-03-11T07:45:18.579Z,97725.83
2023-03-11T07:46:23.289Z,97716.26
2023-03-11T07:47:26.362Z,97720.28
2023-03-11T07:48:31.826Z,97716.23
2023-03-11T07:49:34.450Z,97708.13
2023-03-11T07:50:36.740Z,97704.03
2023-03-11T07:51:42.410Z,97706.01
2023-03-11T07:52:45.223Z,97701.11
2023-03-11T07:53:48.094Z,97700.36
2023-03-11T07:54:50.535Z,97702.30
2023-03-11T07:55:59.284Z,97690.80
2023-03-11T07:57:03.565Z,97699.64
2023-03-11T07:58:05.954Z,97696.14
2023-03-11T07:59:08.325Z,97689.31
2023-03-11T08:00:13.203Z,97693.02
2023-03-11T08:01:20.048Z,97680.38
2023-03-11T08:02:23.566Z,97688.93
2023-03-11T08:03:25.876Z,97685.25
2023-03-11T08:04:30.472Z,97676.59
2023-03-11T08:05:35.629Z,97678.62
2023-03-11T08:06:38.671Z,97666.27
2023-03-11T08:07:41.252Z,97662.67
2023-03-11T08:08:43.706Z,97661.02
2023-03-11T08:09:46.652Z,97662.39
2023-03-11T08:10:49.270Z,97662.39
2023-03-11T08:11:53.618Z,97656.31
2023-03-11T08:12:56.107Z,97645.05
2023-03-11T08:13:59.104Z,97662.36
2023-03-11T08:15:01.579Z,97648.91
2023-03-11T08:16:05.751Z,97637.68
2023-03-11T08:17:08.467Z,97652.20
2023-03-11T08:18:11.177Z,97651.23
2023-03-11T08:19:14.450Z,97650.38
2023-03-11T08:20:17.643Z,97647.34
2023-03-11T08:21:23.002Z,97631.97
2023-03-11T08:22:25.797Z,97631.97
2023-03-11T08:23:28.043Z,97640.84
2023-03-11T08:24:30.356Z,97643.16
2023-03-11T08:25:33.029Z,97628.86
2023-03-11T08:26:36.107Z,97628.13
2023-03-11T08:27:40.733Z,97630.98
2023-03-11T08:28:44.124Z,97615.15
2023-03-11T08:29:46.466Z,97616.31
2023-03-11T08:30:49.026Z,97608.88
2023-03-11T08:31:51.528Z,97602.22
2023-03-11T08:32:54.040Z,97594.03
2023-03-11T08:34:02.772Z,97588.52
2023-03-11T08:35:06.327Z,97592.28
2023-03-11T08:36:09.741Z,97586.31
2023-03-11T08:37:12.484Z,97590.81
2023-03-11T08:38:14.950Z,97592.71
2023-03-11T08:39:17.763Z,97605.42
2023-03-11T08:40:21.151Z,97602.76
2023-03-11T08:41:24.334Z,97595.41
2023-03-11T08:42:27.369Z,97595.41
2023-03-11T08:43:30.141Z,97593.14
2023-03-11T08:44:32.628Z,97592.95
2023-03-11T08:45:35.448Z,97592.12
2023-03-11T08:46:39.694Z,97587.09
2023-03-11T08:47:42.328Z,97571.70
2023-03-11T08:48:44.716Z,97583.88
2023-03-11T08:49:47.064Z,97580.84
2023-03-11T08:50:54.196Z,97567.74
2023-03-11T08:51:54.495Z,97561.37
2023-03-11T08:52:58.619Z,97571.44
2023-03-11T08:54:02.122Z,97571.88
2023-03-11T08:55:05.971Z,97561.73
2023-03-11T08:56:08.901Z,97563.83
2023-03-11T08:57:11.759Z,97562.06
2023-03-11T08:58:15.156Z,97561.55
2023-03-11T08:59:17.656Z,97563.60
2023-03-11T09:00:21.115Z,97566.88
2023-03-11T09:01:23.583Z,97564.52
2023-03-11T09:02:27.236Z,97583.98
2023-03-11T09:03:37.426Z,97582.71
2023-03-11T09:04:39.923Z,97590.59
2023-03-11T09:05:42.438Z,97595.97
2023-03-11T09:06:45.310Z,97593.78
2023-03-11T09:07:48.049Z,97586.14
2023-03-11T09:08:51.369Z,97580.77
2023-03-11T09:09:54.166Z,97593.81
2023-03-11T09:10:57.317Z,97584.30
2023-03-11T09:11:59.740Z,97591.97
2023-03-11T09:13:02.779Z,97588.65
2023-03-11T09:14:05.271Z,97592.44
2023-03-11T09:15:11.153Z,97588.78
2023-03-11T09:16:16.709Z,97588.14
2023-03-11T09:17:32.996Z,97575.02
2023-03-11T09:18:35.616Z,97578.70
2023-03-11T09:19:39.104Z,97575.66
2023-03-11T09:20:42.202Z,97577.70
2023-03-11T09:21:45.170Z,97578.20
2023-03-11T09:22:48.789Z,97563.39
2023-03-11T09:23:51.107Z,97563.39
2023-03-11T09:24:53.509Z,97572.23
2023-03-11T09:25:55.746Z,97571.88
2023-03-11T09:26:58.393Z,97563.00
2023-03-11T09:28:01.188Z,97557.20
2023-03-11T09:29:04.112Z,97553.13
2023-03-11T09:30:08.644Z,97547.09
2023-03-11T09:31:11.079Z,97557.02
2023-03-11T09:32:17.525Z,97542.17
2023-03-11T09:33:20.105Z,97539.69
2023-03-11T09:34:22.672Z,97546.41
2023-03-11T09:35:25.090Z,97536.43
2023-03-11T09:36:27.637Z,97531.63
2023-03-11T09:37:30.747Z,97526.17
2023-03-11T09:38:33.279Z,97530.17
2023-03-11T09:39:36.027Z,97521.30
2023-03-11T09:41:08.410Z,97515.50
2023-03-11T09:42:32.653Z,97529.61
2023-03-11T09:44:05.313Z,97526.28
2023-03-11T09:45:21.458Z,97520.20
2023-03-11T09:46:51.143Z,97524.52
2023-03-11T09:48:12.208Z,97516.69
2023-03-11T09:49:27.112Z,97511.59
2023-03-11T09:50:54.702Z,97515.95
2023-03-11T09:52:15.499Z,97513.47
2023-03-11T09:53:42.245Z,97512.09
2023-03-11T09:54:51.283Z,97503.14
2023-03-11T09:55:56.208Z,97506.41
2023-03-11T09:57:01.886Z,97504.11
2023-03-11T09:58:19.654Z,97503.38
2023-03-11T09:59:28.919Z,97494.84
2023-03-11T10:00:32.330Z,97494.89
2023-03-11T10:01:44.938Z,97490.36
2023-03-11T10:02:49.079Z,97490.80
2023-03-11T10:03:55.109Z,97490.19
2023-03-11T10:05:04.684Z,97486.90
2023-03-11T10:06:14.269Z,97476.27
2023-03-11T10:07:22.204Z,97472.39
2023-03-11T10:08:31.567Z,97467.39
2023-03-11T10:09:51.684Z,97464.80
2023-03-11T10:10:57.693Z,97449.43
2023-03-11T10:12:22.581Z,97433.50
2023-03-11T10:15:39.617Z,97432.27
2023-03-11T10:17:03.990Z,97434.52
2023-03-11T10:18:31.773Z,97436.70
2023-03-11T10:19:37.811Z,97431.87
2023-03-11T10:20:51.614Z,97430.39
2023-03-11T10:22:06.463Z,97433.83
2023-03-11T10:23:28.197Z,97433.64
2023-03-11T10:24:40.344Z,97432.80
2023-03-11T10:25:55.337Z,97425.98
2023-03-11T10:27:01.792Z,97423.97
2023-03-11T10:28:13.333Z,97422.86
2023-03-11T10:29:26.478Z,97432.11
2023-03-11T10:30:42.711Z,97433.25
2023-03-11T10:32:17.542Z,97423.86
2023-03-11T10:33:26.563Z,97417.95
2023-03-11T10:34:44.557Z,97423.39
2023-03-11T10:37:07.789Z,97411.35
2023-03-11T10:38:34.829Z,97402.56
2023-03-11T10:39:39.743Z,97403.19
2023-03-11T10:40:44.699Z,97391.10
2023-03-11T10:41:56.640Z,97391.14
2023-03-11T10:43:05.559Z,97388.89
2023-03-11T10:44:20.192Z,97394.24
2023-03-11T10:45:23.119Z,97390.33
2023-03-11T10:46:28.949Z,97401.13
2023-03-11T10:47:31.725Z,97389.48
2023-03-11T10:48:35.144Z,97402.28
2023-03-11T10:49:37.662Z,97388.74
2023-03-11T10:50:59.292Z,97401.28
2023-03-11T10:52:11.988Z,97389.08
2023-03-11T10:53:17.758Z,97386.55
2023-03-11T10:54:27.655Z,97387.19
2023-03-11T10:55:30.529Z,97376.12
2023-03-11T10:56:36.438Z,97377.41
2023-03-11T10:57:40.412Z,97377.41
2023-03-11T10:58:46.384Z,97382.44
2023-03-11T10:59:56.795Z,97379.12
2023-03-11T11:01:12.073Z,97375.31
2023-03-11T11:02:33.907Z,97368.90
2023-03-11T11:03:40.165Z,97370.80
2023-03-11T11:04:45.313Z,97376.15
2023-03-11T11:06:00.090Z,97364.38
2023-03-11T11:07:31.114Z,97368.80
2023-03-11T11:10:13.094Z,97365.73
2023-03-11T11:11:26.652Z,97360.86
2023-03-11T11:12:30.062Z,97358.50
2023-03-11T11:13:34.949Z,97362.73
2023-03-11T11:14:49.823Z,97363.06
2023-03-11T11:16:20.693Z,97360.27
2023-03-11T11:17:30.286Z,97352.95
2023-03-11T11:18:49.684Z,97355.20
2023-03-11T11:19:55.127Z,97347.05
2023-03-11T11:21:09.962Z,97346.52
2023-03-11T11:22:16.168Z,97346.92
2023-03-11T11:23:29.502Z,97345.40
2023-03-11T11:24:32.476Z,97335.17
2023-03-11T11:25:40.324Z,97333.84
2023-03-11T11:26:43.333Z,97327.13
2023-03-11T11:27:49.191Z,97321.75
2023-03-11T11:29:14.335Z,97319.88
2023-03-11T11:30:18.403Z,97321.94
2023-03-11T11:31:26.126Z,97310.08
2023-03-11T11:32:30.856Z,97314.33
2023-03-11T11:33:52.630Z,97302.13
2023-03-11T11:35:00.858Z,97305.02
2023-03-11T11:36:06.402Z,97302.52
2023-03-11T11:37:15.051Z,97292.91
2023-03-11T11:38:19.487Z,97289.72
2023-03-11T11:39:25.451Z,97293.77
2023-03-11T11:40:32.517Z,97293.14
2023-03-11T11:41:37.939Z,97292.61
2023-03-11T11:42:55.667Z,97285.47
2023-03-11T11:44:05.087Z,97283.72
2023-03-11T11:45:14.090Z,97286.11
2023-03-11T11:46:24.156Z,97281.05
2023-03-11T11:47:29.977Z,97277.64
2023-03-11T11:48:49.251Z,97271.34
2023-03-11T11:49:59.608Z,97281.67
2023-03-11T11:51:13.301Z,97271.34
2023-03-11T11:52:21.458Z,97254.50
2023-03-11T11:53:42.685Z,97259.24
2023-03-11T11:54:57.593Z,97259.94
2023-03-11T11:56:02.092Z,97259.20
2023-03-11T11:57:16.366Z,97255.00
2023-03-11T11:58:19.489Z,97253.34
2023-03-11T11:59:25.106Z,97254.58
2023-03-11T12:00:41.219Z,97257.16
2023-03-11T12:01:55.863Z,97257.89
2023-03-11T12:03:04.438Z,97257.59
2023-03-11T12:04:22.876Z,97246.94
2023-03-11T12:05:38.529Z,97256.23
2023-03-11T12:07:08.435Z,97246.91
2023-03-11T12:08:23.728Z,97252.68
2023-03-11T12:09:47.539Z,97251.69
2023-03-11T12:11:02.654Z,97255.81
2023-03-11T12:12:15.821Z,97262.33
2023-03-11T12:13:44.435Z,97253.42
2023-03-11T12:14:59.785Z,97255.20
2023-03-11T12:16:29.697Z,97251.27
2023-03-11T12:17:35.604Z,97255.73
2023-03-11T12:18:43.589Z,97250.03
2023-03-11T12:20:03.807Z,97255.73
2023-03-11T12:21:10.426Z,97249.84
2023-03-11T12:22:37.443Z,97247.56
2023-03-11T12:25:00.417Z,97236.75
2023-03-11T12:26:18.689Z,97243.39
2023-03-11T12:27:27.250Z,97245.59
2023-03-11T12:28:56.011Z,97246.52
2023-03-11T12:30:04.920Z,97232.44
2023-03-11T12:31:11.332Z,97237.84
2023-03-11T12:32:39.056Z,97243.08
2023-03-11T12:34:03.882Z,97235.95
2023-03-11T12:35:15.702Z,97233.37
2023-03-11T12:36:24.991Z,97242.78
2023-03-11T12:37:27.402Z,97246.70
2023-03-11T12:38:33.809Z,97243.19
2023-03-11T12:39:36.156Z,97243.27
2023-03-11T12:40:50.335Z,97246.91
2023-03-11T12:42:15.068Z,97239.50
2023-03-11T12:43:29.263Z,97239.06
2023-03-11T12:44:33.943Z,97229.90
2023-03-11T12:45:54.949Z,97226.38
2023-03-11T12:47:04.093Z,97241.69
2023-03-11T12:48:29.906Z,97237.16
2023-03-11T12:49:34.621Z,97231.06
2023-03-11T12:50:43.093Z,97233.20
2023-03-11T12:52:15.307Z,97233.20
2023-03-11T12:53:18.869Z,97228.67
2023-03-11T12:54:33.572Z,97226.59
2023-03-11T12:55:40.406Z,97224.52
2023-03-11T12:56:44.869Z,97229.69
2023-03-11T12:57:52.370Z,97226.23
2023-03-11T12:59:01.370Z,97217.83
2023-03-11T13:00:22.294Z,97221.99
2023-03-11T13:01:47.242Z,97216.17